sensor_id;sensor_type;location;lat;lon;timestamp;P1;durP1;ratioP1;P2;durP2;ratioP2
3443;SDS011;1736;52.068;6.968;2023-07-31T00:02:19;3.03;;;2.13;;
3443;SDS011;1736;52.068;6.968;2023-07-31T00:04:45;2.37;;;2.17;;
3443;SDS011;1736;52.068;6.968;2023-07-31T00:07:12;2.50;;;2.30;;
3443;SDS011;1736;52.068;6.968;2023-07-31T00:09:40;2.80;;;2.50;;
3443;SDS011;1736;52.068;6.968;2023-07-31T00:12:07;2.63;;;2.43;;
3443;SDS011;1736;52.068;6.968;2023-07-31T00:14:34;6.63;;;2.23;;
3443;SDS011;1736;52.068;6.968;2023-07-31T00:17:00;3.20;;;2.90;;
3443;SDS011;1736;52.068;6.968;2023-07-31T00:19:27;4.57;;;2.43;;
3443;SDS011;1736;52.068;6.968;2023-07-31T00:21:54;4.27;;;3.20;;
3443;SDS011;1736;52.068;6.968;2023-07-31T00:24:20;2.60;;;2.37;;
3443;SDS011;1736;52.068;6.968;2023-07-31T00:26:48;7.43;;;2.67;;
3443;SDS011;1736;52.068;6.968;2023-07-31T00:29:15;3.03;;;2.53;;
3443;SDS011;1736;52.068;6.968;2023-07-31T00:31:42;3.10;;;2.57;;
3443;SDS011;1736;52.068;6.968;2023-07-31T00:34:08;4.00;;;2.30;;
3443;SDS011;1736;52.068;6.968;2023-07-31T00:36:35;2.63;;;2.40;;
3443;SDS011;1736;52.068;6.968;2023-07-31T00:39:01;2.73;;;2.53;;
3443;SDS011;1736;52.068;6.968;2023-07-31T00:41:29;2.90;;;2.37;;
3443;SDS011;1736;52.068;6.968;2023-07-31T00:43:57;2.70;;;2.47;;
3443;SDS011;1736;52.068;6.968;2023-07-31T00:46:24;5.27;;;2.50;;
3443;SDS011;1736;52.068;6.968;2023-07-31T00:48:50;3.33;;;2.40;;
3443;SDS011;1736;52.068;6.968;2023-07-31T00:51:17;2.27;;;2.03;;
3443;SDS011;1736;52.068;6.968;2023-07-31T00:53:44;2.60;;;2.30;;
3443;SDS011;1736;52.068;6.968;2023-07-31T00:56:11;2.33;;;2.13;;
3443;SDS011;1736;52.068;6.968;2023-07-31T00:58:38;2.23;;;2.10;;
3443;SDS011;1736;52.068;6.968;2023-07-31T01:01:07;3.60;;;2.40;;
3443;SDS011;1736;52.068;6.968;2023-07-31T01:03:33;6.40;;;2.60;;
3443;SDS011;1736;52.068;6.968;2023-07-31T01:06:03;3.37;;;2.40;;
3443;SDS011;1736;52.068;6.968;2023-07-31T01:08:41;2.40;;;2.20;;
3443;SDS011;1736;52.068;6.968;2023-07-31T01:11:15;2.07;;;1.90;;
3443;SDS011;1736;52.068;6.968;2023-07-31T01:13:45;7.30;;;2.10;;
3443;SDS011;1736;52.068;6.968;2023-07-31T01:16:14;2.13;;;2.03;;
3443;SDS011;1736;52.068;6.968;2023-07-31T01:18:40;2.17;;;2.07;;
3443;SDS011;1736;52.068;6.968;2023-07-31T01:21:12;2.10;;;1.90;;
3443;SDS011;1736;52.068;6.968;2023-07-31T01:23:54;1.93;;;1.60;;
3443;SDS011;1736;52.068;6.968;2023-07-31T01:26:36;1.80;;;1.70;;
3443;SDS011;1736;52.068;6.968;2023-07-31T01:29:07;1.50;;;1.40;;
3443;SDS011;1736;52.068;6.968;2023-07-31T01:31:42;1.60;;;1.50;;
3443;SDS011;1736;52.068;6.968;2023-07-31T01:34:13;1.30;;;1.20;;
3443;SDS011;1736;52.068;6.968;2023-07-31T01:36:43;5.60;;;1.67;;
3443;SDS011;1736;52.068;6.968;2023-07-31T01:39:10;1.50;;;1.40;;
3443;SDS011;1736;52.068;6.968;2023-07-31T01:41:38;1.83;;;1.40;;
3443;SDS011;1736;52.068;6.968;2023-07-31T01:44:05;2.10;;;1.80;;
3443;SDS011;1736;52.068;6.968;2023-07-31T01:46:32;1.87;;;1.77;;
3443;SDS011;1736;52.068;6.968;2023-07-31T01:48:58;1.70;;;1.60;;
3443;SDS011;1736;52.068;6.968;2023-07-31T01:51:25;2.00;;;1.90;;
3443;SDS011;1736;52.068;6.968;2023-07-31T01:53:52;2.00;;;1.80;;
3443;SDS011;1736;52.068;6.968;2023-07-31T01:56:18;2.40;;;2.20;;
3443;SDS011;1736;52.068;6.968;2023-07-31T01:58:46;5.47;;;3.40;;
3443;SDS011;1736;52.068;6.968;2023-07-31T02:01:13;9.60;;;4.47;;
3443;SDS011;1736;52.068;6.968;2023-07-31T02:03:40;9.30;;;5.83;;
3443;SDS011;1736;52.068;6.968;2023-07-31T02:06:07;10.30;;;6.30;;
3443;SDS011;1736;52.068;6.968;2023-07-31T02:08:33;20.60;;;8.70;;
3443;SDS011;1736;52.068;6.968;2023-07-31T02:11:00;24.33;;;9.20;;
3443;SDS011;1736;52.068;6.968;2023-07-31T02:13:27;21.80;;;9.13;;
3443;SDS011;1736;52.068;6.968;2023-07-31T02:15:55;28.23;;;12.13;;
3443;SDS011;1736;52.068;6.968;2023-07-31T02:18:22;33.20;;;13.37;;
3443;SDS011;1736;52.068;6.968;2023-07-31T02:20:49;33.53;;;12.30;;
3443;SDS011;1736;52.068;6.968;2023-07-31T02:23:16;34.47;;;12.90;;
3443;SDS011;1736;52.068;6.968;2023-07-31T02:25:42;35.13;;;14.77;;
3443;SDS011;1736;52.068;6.968;2023-07-31T02:28:09;42.70;;;14.80;;
3443;SDS011;1736;52.068;6.968;2023-07-31T02:30:36;31.13;;;14.37;;
3443;SDS011;1736;52.068;6.968;2023-07-31T02:33:04;34.87;;;15.20;;
3443;SDS011;1736;52.068;6.968;2023-07-31T02:35:31;43.57;;;15.80;;
3443;SDS011;1736;52.068;6.968;2023-07-31T02:37:57;39.67;;;15.30;;
3443;SDS011;1736;52.068;6.968;2023-07-31T02:40:24;36.03;;;16.47;;
3443;SDS011;1736;52.068;6.968;2023-07-31T02:42:50;40.97;;;14.73;;
3443;SDS011;1736;52.068;6.968;2023-07-31T02:45:17;38.50;;;15.97;;
3443;SDS011;1736;52.068;6.968;2023-07-31T02:47:44;36.33;;;14.17;;
3443;SDS011;1736;52.068;6.968;2023-07-31T02:50:12;42.10;;;16.13;;
3443;SDS011;1736;52.068;6.968;2023-07-31T02:52:38;35.07;;;14.10;;
3443;SDS011;1736;52.068;6.968;2023-07-31T02:55:05;37.97;;;14.37;;
3443;SDS011;1736;52.068;6.968;2023-07-31T02:57:32;29.77;;;13.93;;
3443;SDS011;1736;52.068;6.968;2023-07-31T02:59:59;36.30;;;13.37;;
3443;SDS011;1736;52.068;6.968;2023-07-31T03:02:25;29.10;;;12.90;;
3443;SDS011;1736;52.068;6.968;2023-07-31T03:04:52;37.03;;;12.83;;
3443;SDS011;1736;52.068;6.968;2023-07-31T03:07:20;32.20;;;12.97;;
3443;SDS011;1736;52.068;6.968;2023-07-31T03:09:46;30.10;;;12.23;;
3443;SDS011;1736;52.068;6.968;2023-07-31T03:12:13;21.33;;;11.67;;
3443;SDS011;1736;52.068;6.968;2023-07-31T03:14:40;28.73;;;11.80;;
3443;SDS011;1736;52.068;6.968;2023-07-31T03:17:06;27.60;;;11.30;;
3443;SDS011;1736;52.068;6.968;2023-07-31T03:19:33;23.60;;;11.20;;
3443;SDS011;1736;52.068;6.968;2023-07-31T03:22:00;21.20;;;10.40;;
3443;SDS011;1736;52.068;6.968;2023-07-31T03:24:28;28.37;;;10.23;;
3443;SDS011;1736;52.068;6.968;2023-07-31T03:26:55;21.07;;;10.57;;
3443;SDS011;1736;52.068;6.968;2023-07-31T03:29:22;31.23;;;10.73;;
3443;SDS011;1736;52.068;6.968;2023-07-31T03:31:48;22.07;;;9.27;;
3443;SDS011;1736;52.068;6.968;2023-07-31T03:34:15;21.33;;;9.20;;
3443;SDS011;1736;52.068;6.968;2023-07-31T03:36:41;22.57;;;10.27;;
3443;SDS011;1736;52.068;6.968;2023-07-31T03:39:08;26.67;;;9.80;;
3443;SDS011;1736;52.068;6.968;2023-07-31T03:41:36;28.27;;;9.20;;
3443;SDS011;1736;52.068;6.968;2023-07-31T03:44:03;18.67;;;8.70;;
3443;SDS011;1736;52.068;6.968;2023-07-31T03:46:29;24.63;;;10.27;;
3443;SDS011;1736;52.068;6.968;2023-07-31T03:48:56;22.23;;;9.77;;
3443;SDS011;1736;52.068;6.968;2023-07-31T03:51:23;29.57;;;9.90;;
3443;SDS011;1736;52.068;6.968;2023-07-31T03:53:49;27.03;;;9.13;;
3443;SDS011;1736;52.068;6.968;2023-07-31T03:56:16;22.73;;;8.37;;
3443;SDS011;1736;52.068;6.968;2023-07-31T03:58:44;27.27;;;9.60;;
3443;SDS011;1736;52.068;6.968;2023-07-31T04:01:10;23.70;;;9.70;;
3443;SDS011;1736;52.068;6.968;2023-07-31T04:03:37;24.47;;;10.20;;
3443;SDS011;1736;52.068;6.968;2023-07-31T04:06:03;23.33;;;9.20;;
3443;SDS011;1736;52.068;6.968;2023-07-31T04:08:32;25.33;;;9.17;;
3443;SDS011;1736;52.068;6.968;2023-07-31T04:10:58;22.37;;;9.00;;
3443;SDS011;1736;52.068;6.968;2023-07-31T04:13:25;21.63;;;8.53;;
3443;SDS011;1736;52.068;6.968;2023-07-31T04:15:54;20.87;;;8.83;;
3443;SDS011;1736;52.068;6.968;2023-07-31T04:18:20;22.33;;;8.57;;
3443;SDS011;1736;52.068;6.968;2023-07-31T04:20:47;23.60;;;8.60;;
3443;SDS011;1736;52.068;6.968;2023-07-31T04:23:13;23.30;;;9.70;;
3443;SDS011;1736;52.068;6.968;2023-07-31T04:25:40;17.50;;;8.03;;
3443;SDS011;1736;52.068;6.968;2023-07-31T04:28:07;19.90;;;8.57;;
3443;SDS011;1736;52.068;6.968;2023-07-31T04:30:33;26.33;;;7.23;;
3443;SDS011;1736;52.068;6.968;2023-07-31T04:33:02;20.80;;;7.43;;
3443;SDS011;1736;52.068;6.968;2023-07-31T04:35:29;20.77;;;7.73;;
3443;SDS011;1736;52.068;6.968;2023-07-31T04:37:56;21.20;;;7.73;;
3443;SDS011;1736;52.068;6.968;2023-07-31T04:40:22;22.73;;;7.93;;
3443;SDS011;1736;52.068;6.968;2023-07-31T04:42:49;22.30;;;7.20;;
3443;SDS011;1736;52.068;6.968;2023-07-31T04:45:15;21.80;;;7.00;;
3443;SDS011;1736;52.068;6.968;2023-07-31T04:47:42;23.20;;;7.20;;
3443;SDS011;1736;52.068;6.968;2023-07-31T04:50:10;18.80;;;6.97;;
3443;SDS011;1736;52.068;6.968;2023-07-31T04:52:37;23.80;;;7.53;;
3443;SDS011;1736;52.068;6.968;2023-07-31T04:55:04;27.13;;;7.20;;
3443;SDS011;1736;52.068;6.968;2023-07-31T04:57:31;16.90;;;6.20;;
3443;SDS011;1736;52.068;6.968;2023-07-31T04:59:57;21.60;;;6.80;;
3443;SDS011;1736;52.068;6.968;2023-07-31T05:02:24;17.97;;;6.30;;
3443;SDS011;1736;52.068;6.968;2023-07-31T05:04:50;19.90;;;6.90;;
3443;SDS011;1736;52.068;6.968;2023-07-31T05:07:18;13.20;;;5.73;;
3443;SDS011;1736;52.068;6.968;2023-07-31T05:09:45;17.83;;;7.07;;
3443;SDS011;1736;52.068;6.968;2023-07-31T05:12:11;16.77;;;7.47;;
3443;SDS011;1736;52.068;6.968;2023-07-31T05:14:38;24.03;;;6.60;;
3443;SDS011;1736;52.068;6.968;2023-07-31T05:17:05;17.83;;;6.70;;
3443;SDS011;1736;52.068;6.968;2023-07-31T05:19:31;17.17;;;7.53;;
3443;SDS011;1736;52.068;6.968;2023-07-31T05:21:58;20.63;;;6.60;;
3443;SDS011;1736;52.068;6.968;2023-07-31T05:24:26;17.47;;;7.10;;
3443;SDS011;1736;52.068;6.968;2023-07-31T05:26:53;15.33;;;6.43;;
3443;SDS011;1736;52.068;6.968;2023-07-31T05:29:19;21.47;;;6.87;;
3443;SDS011;1736;52.068;6.968;2023-07-31T05:31:46;17.50;;;6.70;;
3443;SDS011;1736;52.068;6.968;2023-07-31T05:34:12;19.17;;;6.87;;
3443;SDS011;1736;52.068;6.968;2023-07-31T05:36:39;17.03;;;6.30;;
3443;SDS011;1736;52.068;6.968;2023-07-31T05:39:06;14.70;;;6.73;;
3443;SDS011;1736;52.068;6.968;2023-07-31T05:41:35;17.70;;;7.37;;
3443;SDS011;1736;52.068;6.968;2023-07-31T05:44:02;26.57;;;7.53;;
3443;SDS011;1736;52.068;6.968;2023-07-31T05:46:29;24.13;;;8.10;;
3443;SDS011;1736;52.068;6.968;2023-07-31T05:48:56;21.93;;;7.10;;
3443;SDS011;1736;52.068;6.968;2023-07-31T05:51:22;20.87;;;7.30;;
3443;SDS011;1736;52.068;6.968;2023-07-31T05:53:49;13.30;;;6.93;;
3443;SDS011;1736;52.068;6.968;2023-07-31T05:56:16;20.60;;;7.77;;
3443;SDS011;1736;52.068;6.968;2023-07-31T05:58:44;18.83;;;7.93;;
3443;SDS011;1736;52.068;6.968;2023-07-31T06:01:10;19.73;;;7.67;;
3443;SDS011;1736;52.068;6.968;2023-07-31T06:03:37;16.63;;;7.70;;
3443;SDS011;1736;52.068;6.968;2023-07-31T06:06:03;15.40;;;6.73;;
3443;SDS011;1736;52.068;6.968;2023-07-31T06:08:30;17.00;;;6.47;;
3443;SDS011;1736;52.068;6.968;2023-07-31T06:10:57;22.20;;;6.77;;
3443;SDS011;1736;52.068;6.968;2023-07-31T06:13:24;15.67;;;6.50;;
3443;SDS011;1736;52.068;6.968;2023-07-31T06:15:53;19.33;;;6.73;;
3443;SDS011;1736;52.068;6.968;2023-07-31T06:18:19;17.53;;;6.50;;
3443;SDS011;1736;52.068;6.968;2023-07-31T06:20:46;17.00;;;6.30;;
3443;SDS011;1736;52.068;6.968;2023-07-31T06:23:12;14.47;;;5.97;;
3443;SDS011;1736;52.068;6.968;2023-07-31T06:25:39;14.47;;;6.47;;
3443;SDS011;1736;52.068;6.968;2023-07-31T06:28:06;19.63;;;5.77;;
3443;SDS011;1736;52.068;6.968;2023-07-31T06:30:32;14.27;;;6.37;;
3443;SDS011;1736;52.068;6.968;2023-07-31T06:33:00;17.60;;;6.83;;
3443;SDS011;1736;52.068;6.968;2023-07-31T06:35:27;14.70;;;5.60;;
3443;SDS011;1736;52.068;6.968;2023-07-31T06:37:54;18.97;;;7.03;;
3443;SDS011;1736;52.068;6.968;2023-07-31T06:40:21;17.03;;;6.30;;
3443;SDS011;1736;52.068;6.968;2023-07-31T06:42:48;14.90;;;6.20;;
3443;SDS011;1736;52.068;6.968;2023-07-31T06:45:14;13.33;;;5.90;;
3443;SDS011;1736;52.068;6.968;2023-07-31T06:47:41;16.23;;;6.13;;
3443;SDS011;1736;52.068;6.968;2023-07-31T06:50:09;14.27;;;6.30;;
3443;SDS011;1736;52.068;6.968;2023-07-31T06:52:36;14.53;;;6.30;;
3443;SDS011;1736;52.068;6.968;2023-07-31T06:55:03;19.50;;;6.83;;
3443;SDS011;1736;52.068;6.968;2023-07-31T06:57:42;19.70;;;7.00;;
3443;SDS011;1736;52.068;6.968;2023-07-31T07:00:08;15.23;;;6.17;;
3443;SDS011;1736;52.068;6.968;2023-07-31T07:02:36;20.50;;;7.13;;
3443;SDS011;1736;52.068;6.968;2023-07-31T07:05:03;22.97;;;7.37;;
3443;SDS011;1736;52.068;6.968;2023-07-31T07:07:31;15.80;;;6.73;;
3443;SDS011;1736;52.068;6.968;2023-07-31T07:09:58;15.90;;;6.47;;
3443;SDS011;1736;52.068;6.968;2023-07-31T07:12:24;14.97;;;7.13;;
3443;SDS011;1736;52.068;6.968;2023-07-31T07:14:51;11.87;;;5.80;;
3443;SDS011;1736;52.068;6.968;2023-07-31T07:17:18;15.00;;;6.83;;
3443;SDS011;1736;52.068;6.968;2023-07-31T07:19:44;11.50;;;5.60;;
3443;SDS011;1736;52.068;6.968;2023-07-31T07:22:11;13.57;;;6.47;;
3443;SDS011;1736;52.068;6.968;2023-07-31T07:24:39;18.30;;;7.40;;
3443;SDS011;1736;52.068;6.968;2023-07-31T07:27:06;11.40;;;5.00;;
3443;SDS011;1736;52.068;6.968;2023-07-31T07:29:33;7.90;;;4.47;;
3443;SDS011;1736;52.068;6.968;2023-07-31T07:32:00;11.30;;;4.83;;
3443;SDS011;1736;52.068;6.968;2023-07-31T07:34:27;11.83;;;4.40;;
3443;SDS011;1736;52.068;6.968;2023-07-31T07:36:54;8.20;;;4.03;;
3443;SDS011;1736;52.068;6.968;2023-07-31T07:39:21;8.47;;;4.50;;
3443;SDS011;1736;52.068;6.968;2023-07-31T07:41:49;6.93;;;3.60;;
3443;SDS011;1736;52.068;6.968;2023-07-31T07:44:16;4.03;;;3.20;;
3443;SDS011;1736;52.068;6.968;2023-07-31T07:46:42;7.63;;;3.63;;
3443;SDS011;1736;52.068;6.968;2023-07-31T07:49:09;5.63;;;3.10;;
3443;SDS011;1736;52.068;6.968;2023-07-31T07:51:35;6.57;;;3.63;;
3443;SDS011;1736;52.068;6.968;2023-07-31T07:54:02;5.40;;;3.23;;
3443;SDS011;1736;52.068;6.968;2023-07-31T07:56:29;5.07;;;3.27;;
3443;SDS011;1736;52.068;6.968;2023-07-31T07:58:57;5.00;;;3.13;;
3443;SDS011;1736;52.068;6.968;2023-07-31T08:01:23;4.93;;;3.37;;
3443;SDS011;1736;52.068;6.968;2023-07-31T08:03:51;3.03;;;2.73;;
3443;SDS011;1736;52.068;6.968;2023-07-31T08:06:18;4.47;;;2.97;;
3443;SDS011;1736;52.068;6.968;2023-07-31T08:08:45;4.10;;;3.20;;
3443;SDS011;1736;52.068;6.968;2023-07-31T08:11:11;4.20;;;2.43;;
3443;SDS011;1736;52.068;6.968;2023-07-31T08:13:38;5.87;;;2.80;;
3443;SDS011;1736;52.068;6.968;2023-07-31T08:16:06;3.93;;;2.83;;
3443;SDS011;1736;52.068;6.968;2023-07-31T08:18:32;8.67;;;2.70;;
3443;SDS011;1736;52.068;6.968;2023-07-31T08:20:59;2.67;;;2.43;;
3443;SDS011;1736;52.068;6.968;2023-07-31T08:23:27;4.03;;;3.20;;
3443;SDS011;1736;52.068;6.968;2023-07-31T08:25:54;3.07;;;2.70;;
3443;SDS011;1736;52.068;6.968;2023-07-31T08:28:20;3.30;;;2.60;;
3443;SDS011;1736;52.068;6.968;2023-07-31T08:30:47;3.30;;;2.50;;
3443;SDS011;1736;52.068;6.968;2023-07-31T08:33:16;2.47;;;2.27;;
3443;SDS011;1736;52.068;6.968;2023-07-31T08:35:43;4.17;;;2.60;;
3443;SDS011;1736;52.068;6.968;2023-07-31T08:38:10;3.30;;;2.80;;
3443;SDS011;1736;52.068;6.968;2023-07-31T08:40:36;2.87;;;2.67;;
3443;SDS011;1736;52.068;6.968;2023-07-31T08:43:03;3.57;;;2.60;;
3443;SDS011;1736;52.068;6.968;2023-07-31T08:45:30;2.70;;;2.50;;
3443;SDS011;1736;52.068;6.968;2023-07-31T08:47:58;2.73;;;2.50;;
3443;SDS011;1736;52.068;6.968;2023-07-31T08:50:27;2.63;;;2.43;;
3443;SDS011;1736;52.068;6.968;2023-07-31T08:52:53;2.90;;;2.57;;
3443;SDS011;1736;52.068;6.968;2023-07-31T08:55:20;2.50;;;2.30;;
3443;SDS011;1736;52.068;6.968;2023-07-31T08:57:48;5.20;;;2.10;;
3443;SDS011;1736;52.068;6.968;2023-07-31T09:00:17;2.93;;;2.10;;
3443;SDS011;1736;52.068;6.968;2023-07-31T09:02:48;2.13;;;2.03;;
3443;SDS011;1736;52.068;6.968;2023-07-31T09:05:19;4.03;;;2.77;;
3443;SDS011;1736;52.068;6.968;2023-07-31T09:07:49;3.80;;;2.67;;
3443;SDS011;1736;52.068;6.968;2023-07-31T09:10:17;2.83;;;2.53;;
3443;SDS011;1736;52.068;6.968;2023-07-31T09:12:44;2.67;;;2.47;;
3443;SDS011;1736;52.068;6.968;2023-07-31T09:15:11;4.40;;;3.00;;
3443;SDS011;1736;52.068;6.968;2023-07-31T09:17:38;2.87;;;2.67;;
3443;SDS011;1736;52.068;6.968;2023-07-31T09:20:15;2.53;;;2.33;;
3443;SDS011;1736;52.068;6.968;2023-07-31T09:22:43;2.70;;;2.50;;
3443;SDS011;1736;52.068;6.968;2023-07-31T09:25:15;2.73;;;2.53;;
3443;SDS011;1736;52.068;6.968;2023-07-31T09:27:46;2.70;;;2.50;;
3443;SDS011;1736;52.068;6.968;2023-07-31T09:30:13;3.80;;;2.60;;
3443;SDS011;1736;52.068;6.968;2023-07-31T09:32:40;2.90;;;2.63;;
3443;SDS011;1736;52.068;6.968;2023-07-31T09:35:13;3.33;;;3.03;;
3443;SDS011;1736;52.068;6.968;2023-07-31T09:37:47;2.47;;;2.37;;
3443;SDS011;1736;52.068;6.968;2023-07-31T09:40:25;2.87;;;2.53;;
3443;SDS011;1736;52.068;6.968;2023-07-31T09:42:54;2.53;;;2.33;;
3443;SDS011;1736;52.068;6.968;2023-07-31T09:45:23;3.43;;;2.50;;
3443;SDS011;1736;52.068;6.968;2023-07-31T09:47:50;2.17;;;2.07;;
3443;SDS011;1736;52.068;6.968;2023-07-31T09:50:16;2.17;;;1.93;;
3443;SDS011;1736;52.068;6.968;2023-07-31T09:52:43;2.60;;;2.30;;
3443;SDS011;1736;52.068;6.968;2023-07-31T09:55:10;2.70;;;2.50;;
3443;SDS011;1736;52.068;6.968;2023-07-31T09:57:39;2.77;;;2.40;;
3443;SDS011;1736;52.068;6.968;2023-07-31T10:00:08;2.30;;;2.20;;
3443;SDS011;1736;52.068;6.968;2023-07-31T10:02:35;2.37;;;2.17;;
3443;SDS011;1736;52.068;6.968;2023-07-31T10:05:03;2.40;;;2.20;;
3443;SDS011;1736;52.068;6.968;2023-07-31T10:07:31;2.30;;;2.10;;
3443;SDS011;1736;52.068;6.968;2023-07-31T10:10:02;2.90;;;2.60;;
3443;SDS011;1736;52.068;6.968;2023-07-31T10:12:31;4.90;;;3.00;;
3443;SDS011;1736;52.068;6.968;2023-07-31T10:15:01;2.93;;;2.73;;
3443;SDS011;1736;52.068;6.968;2023-07-31T10:17:29;2.90;;;2.70;;
3443;SDS011;1736;52.068;6.968;2023-07-31T10:19:56;2.70;;;2.50;;
3443;SDS011;1736;52.068;6.968;2023-07-31T10:22:24;3.20;;;3.00;;
3443;SDS011;1736;52.068;6.968;2023-07-31T10:24:51;2.67;;;2.57;;
3443;SDS011;1736;52.068;6.968;2023-07-31T10:27:20;3.63;;;2.70;;
3443;SDS011;1736;52.068;6.968;2023-07-31T10:29:47;3.13;;;2.83;;
3443;SDS011;1736;52.068;6.968;2023-07-31T10:32:16;4.67;;;2.90;;
3443;SDS011;1736;52.068;6.968;2023-07-31T10:34:43;3.30;;;3.00;;
3443;SDS011;1736;52.068;6.968;2023-07-31T10:37:20;2.90;;;2.70;;
3443;SDS011;1736;52.068;6.968;2023-07-31T10:39:54;4.10;;;3.20;;
3443;SDS011;1736;52.068;6.968;2023-07-31T10:42:32;3.77;;;3.00;;
3443;SDS011;1736;52.068;6.968;2023-07-31T10:45:01;9.53;;;3.07;;
3443;SDS011;1736;52.068;6.968;2023-07-31T10:47:30;2.60;;;2.40;;
3443;SDS011;1736;52.068;6.968;2023-07-31T10:50:13;3.93;;;3.00;;
3443;SDS011;1736;52.068;6.968;2023-07-31T10:52:45;3.53;;;3.10;;
3443;SDS011;1736;52.068;6.968;2023-07-31T10:55:14;3.63;;;3.07;;
3443;SDS011;1736;52.068;6.968;2023-07-31T10:57:44;3.67;;;3.30;;
3443;SDS011;1736;52.068;6.968;2023-07-31T11:02:57;3.73;;;3.40;;
3443;SDS011;1736;52.068;6.968;2023-07-31T11:05:41;4.90;;;3.67;;
3443;SDS011;1736;52.068;6.968;2023-07-31T11:08:19;5.77;;;3.23;;
3443;SDS011;1736;52.068;6.968;2023-07-31T11:10:47;3.77;;;3.47;;
3443;SDS011;1736;52.068;6.968;2023-07-31T11:13:16;3.73;;;3.43;;
3443;SDS011;1736;52.068;6.968;2023-07-31T11:15:42;7.70;;;4.80;;
3443;SDS011;1736;52.068;6.968;2023-07-31T11:18:11;4.73;;;3.97;;
3443;SDS011;1736;52.068;6.968;2023-07-31T11:20:38;5.30;;;4.80;;
3443;SDS011;1736;52.068;6.968;2023-07-31T11:23:08;6.60;;;4.33;;
3443;SDS011;1736;52.068;6.968;2023-07-31T11:25:36;5.50;;;4.80;;
3443;SDS011;1736;52.068;6.968;2023-07-31T11:28:04;5.97;;;4.57;;
3443;SDS011;1736;52.068;6.968;2023-07-31T11:30:31;7.17;;;5.53;;
3443;SDS011;1736;52.068;6.968;2023-07-31T11:32:59;5.43;;;4.93;;
3443;SDS011;1736;52.068;6.968;2023-07-31T11:35:29;6.37;;;5.17;;
3443;SDS011;1736;52.068;6.968;2023-07-31T11:37:56;8.90;;;5.60;;
3443;SDS011;1736;52.068;6.968;2023-07-31T11:40:23;6.10;;;5.50;;
3443;SDS011;1736;52.068;6.968;2023-07-31T11:42:53;6.53;;;5.60;;
3443;SDS011;1736;52.068;6.968;2023-07-31T11:45:20;16.13;;;5.70;;
3443;SDS011;1736;52.068;6.968;2023-07-31T11:47:47;7.33;;;5.30;;
3443;SDS011;1736;52.068;6.968;2023-07-31T11:50:13;5.90;;;5.30;;
3443;SDS011;1736;52.068;6.968;2023-07-31T11:52:42;8.90;;;5.60;;
3443;SDS011;1736;52.068;6.968;2023-07-31T11:55:11;8.60;;;5.80;;
3443;SDS011;1736;52.068;6.968;2023-07-31T11:57:40;11.87;;;6.07;;
3443;SDS011;1736;52.068;6.968;2023-07-31T12:00:10;7.37;;;5.50;;
3443;SDS011;1736;52.068;6.968;2023-07-31T12:02:39;7.57;;;5.63;;
3443;SDS011;1736;52.068;6.968;2023-07-31T12:05:06;8.50;;;5.70;;
3443;SDS011;1736;52.068;6.968;2023-07-31T12:07:49;8.87;;;5.30;;
3443;SDS011;1736;52.068;6.968;2023-07-31T12:10:27;7.10;;;5.87;;
3443;SDS011;1736;52.068;6.968;2023-07-31T12:12:55;7.37;;;5.50;;
3443;SDS011;1736;52.068;6.968;2023-07-31T12:15:28;7.20;;;5.70;;
3443;SDS011;1736;52.068;6.968;2023-07-31T12:17:57;6.00;;;5.27;;
3443;SDS011;1736;52.068;6.968;2023-07-31T12:20:23;9.80;;;5.73;;
3443;SDS011;1736;52.068;6.968;2023-07-31T12:22:51;6.70;;;5.80;;
3443;SDS011;1736;52.068;6.968;2023-07-31T12:25:18;8.63;;;5.80;;
3443;SDS011;1736;52.068;6.968;2023-07-31T12:27:45;7.63;;;5.23;;
3443;SDS011;1736;52.068;6.968;2023-07-31T12:30:25;11.37;;;6.23;;
3443;SDS011;1736;52.068;6.968;2023-07-31T12:32:52;6.03;;;5.40;;
3443;SDS011;1736;52.068;6.968;2023-07-31T12:35:19;13.90;;;5.70;;
3443;SDS011;1736;52.068;6.968;2023-07-31T12:37:46;8.17;;;5.80;;
3443;SDS011;1736;52.068;6.968;2023-07-31T12:40:14;9.50;;;5.20;;
3443;SDS011;1736;52.068;6.968;2023-07-31T12:42:41;8.83;;;5.70;;
3443;SDS011;1736;52.068;6.968;2023-07-31T12:45:08;13.17;;;6.13;;
3443;SDS011;1736;52.068;6.968;2023-07-31T12:47:35;7.17;;;5.60;;
3443;SDS011;1736;52.068;6.968;2023-07-31T12:50:01;9.00;;;5.90;;
3443;SDS011;1736;52.068;6.968;2023-07-31T12:52:28;6.43;;;5.10;;
3443;SDS011;1736;52.068;6.968;2023-07-31T12:54:55;8.77;;;5.60;;
3443;SDS011;1736;52.068;6.968;2023-07-31T12:57:23;8.53;;;6.50;;
3443;SDS011;1736;52.068;6.968;2023-07-31T12:59:50;8.10;;;5.47;;
3443;SDS011;1736;52.068;6.968;2023-07-31T13:02:16;9.07;;;6.53;;
3443;SDS011;1736;52.068;6.968;2023-07-31T13:04:43;12.30;;;5.80;;
3443;SDS011;1736;52.068;6.968;2023-07-31T13:07:10;7.27;;;5.70;;
3443;SDS011;1736;52.068;6.968;2023-07-31T13:09:36;10.30;;;5.97;;
3443;SDS011;1736;52.068;6.968;2023-07-31T13:12:03;8.30;;;5.30;;
3443;SDS011;1736;52.068;6.968;2023-07-31T13:14:32;18.10;;;5.97;;
3443;SDS011;1736;52.068;6.968;2023-07-31T13:16:58;8.23;;;5.47;;
3443;SDS011;1736;52.068;6.968;2023-07-31T13:19:25;6.57;;;4.67;;
3443;SDS011;1736;52.068;6.968;2023-07-31T13:21:52;7.93;;;4.97;;
3443;SDS011;1736;52.068;6.968;2023-07-31T13:24:18;7.23;;;5.17;;
3443;SDS011;1736;52.068;6.968;2023-07-31T13:26:45;7.83;;;5.50;;
3443;SDS011;1736;52.068;6.968;2023-07-31T13:29:12;6.37;;;4.30;;
3443;SDS011;1736;52.068;6.968;2023-07-31T13:31:39;4.93;;;4.27;;
3443;SDS011;1736;52.068;6.968;2023-07-31T13:34:06;7.53;;;4.97;;
3443;SDS011;1736;52.068;6.968;2023-07-31T13:36:33;11.03;;;4.83;;
3443;SDS011;1736;52.068;6.968;2023-07-31T13:39:02;5.87;;;4.63;;
3443;SDS011;1736;52.068;6.968;2023-07-31T13:41:28;8.37;;;5.57;;
3443;SDS011;1736;52.068;6.968;2023-07-31T13:43:55;7.37;;;4.23;;
3443;SDS011;1736;52.068;6.968;2023-07-31T13:46:22;5.80;;;4.60;;
3443;SDS011;1736;52.068;6.968;2023-07-31T13:48:50;6.40;;;4.80;;
3443;SDS011;1736;52.068;6.968;2023-07-31T13:51:19;9.87;;;4.70;;
3443;SDS011;1736;52.068;6.968;2023-07-31T13:53:46;8.90;;;4.80;;
3443;SDS011;1736;52.068;6.968;2023-07-31T13:56:13;8.63;;;5.30;;
3443;SDS011;1736;52.068;6.968;2023-07-31T13:58:39;8.50;;;5.20;;
3443;SDS011;1736;52.068;6.968;2023-07-31T14:01:06;8.00;;;6.23;;
3443;SDS011;1736;52.068;6.968;2023-07-31T14:03:32;5.87;;;4.50;;
3443;SDS011;1736;52.068;6.968;2023-07-31T14:06:00;6.40;;;4.90;;
3443;SDS011;1736;52.068;6.968;2023-07-31T14:08:27;5.43;;;4.30;;
3443;SDS011;1736;52.068;6.968;2023-07-31T14:10:54;4.83;;;4.43;;
3443;SDS011;1736;52.068;6.968;2023-07-31T14:13:21;6.33;;;4.00;;
3443;SDS011;1736;52.068;6.968;2023-07-31T14:15:48;4.00;;;3.70;;
3443;SDS011;1736;52.068;6.968;2023-07-31T14:18:14;4.77;;;3.93;;
3443;SDS011;1736;52.068;6.968;2023-07-31T14:20:41;15.60;;;4.90;;
3443;SDS011;1736;52.068;6.968;2023-07-31T14:23:09;3.67;;;3.30;;
3443;SDS011;1736;52.068;6.968;2023-07-31T14:25:35;4.87;;;4.00;;
3443;SDS011;1736;52.068;6.968;2023-07-31T14:28:02;4.67;;;3.30;;
3443;SDS011;1736;52.068;6.968;2023-07-31T14:30:29;7.07;;;3.73;;
3443;SDS011;1736;52.068;6.968;2023-07-31T14:32:56;6.10;;;3.97;;
3443;SDS011;1736;52.068;6.968;2023-07-31T14:35:23;7.80;;;4.60;;
3443;SDS011;1736;52.068;6.968;2023-07-31T14:37:49;6.07;;;4.30;;
3443;SDS011;1736;52.068;6.968;2023-07-31T14:40:17;4.57;;;4.10;;
3443;SDS011;1736;52.068;6.968;2023-07-31T14:42:44;7.10;;;4.47;;
3443;SDS011;1736;52.068;6.968;2023-07-31T14:45:11;4.83;;;4.07;;
3443;SDS011;1736;52.068;6.968;2023-07-31T14:47:37;6.50;;;4.87;;
3443;SDS011;1736;52.068;6.968;2023-07-31T14:50:04;6.37;;;4.57;;
3443;SDS011;1736;52.068;6.968;2023-07-31T14:52:32;5.87;;;4.50;;
3443;SDS011;1736;52.068;6.968;2023-07-31T14:54:59;7.80;;;4.90;;
3443;SDS011;1736;52.068;6.968;2023-07-31T14:57:27;8.90;;;5.20;;
3443;SDS011;1736;52.068;6.968;2023-07-31T14:59:53;7.73;;;4.87;;
3443;SDS011;1736;52.068;6.968;2023-07-31T15:02:20;9.33;;;5.00;;
3443;SDS011;1736;52.068;6.968;2023-07-31T15:04:47;8.20;;;5.10;;
3443;SDS011;1736;52.068;6.968;2023-07-31T15:07:13;8.47;;;5.70;;
3443;SDS011;1736;52.068;6.968;2023-07-31T15:09:40;10.30;;;5.97;;
3443;SDS011;1736;52.068;6.968;2023-07-31T15:12:07;7.63;;;5.20;;
3443;SDS011;1736;52.068;6.968;2023-07-31T15:14:35;7.43;;;5.00;;